< < Back
Terminal Aerodrome Forecast


Current Version              Previous Versions:   1  2  3  4  5  6  7  8  9  

Terminal Aerodrome Forecast

606
FTUS44 KMOB 231742
TAFPNS
TAF
KPNS 231742Z 2318/2418 14010KT P6SM VCTS SCT030CB SCT090 BKN250
     FM232300 17004KT P6SM SCT250=

Latest METAR

209
SAUS70 KWBC 232100 RRM
MTRPNS
METAR KPNS 232053Z 17006KT 10SM FEW035 31/23 A2998 RMK AO2 SLP151
T03110233 58013


USA.gov is the U.S. government's official web portal to all federal, state and local government web resources and services.